createdAt,value
2024-01-21T00:07:58.851Z,-4.1
2024-01-21T00:20:58.827Z,-3.8
2024-01-21T00:33:58.845Z,-3.6
2024-01-21T00:46:58.831Z,-3.7
2024-01-21T00:59:58.861Z,-4.0
2024-01-21T01:12:58.841Z,-4.0
2024-01-21T01:25:58.842Z,-3.4
2024-01-21T01:38:58.897Z,-4.0
2024-01-21T01:51:58.856Z,-4.2
2024-01-21T02:04:58.894Z,-4.3
2024-01-21T02:17:58.920Z,-4.0
2024-01-21T02:30:58.900Z,-4.1
2024-01-21T02:43:58.846Z,-4.1
2024-01-21T02:56:58.876Z,-4.4
2024-01-21T03:09:58.882Z,-4.2
2024-01-21T03:22:58.865Z,-4.3
2024-01-21T03:35:59.097Z,-3.6
2024-01-21T03:48:58.964Z,-4.0
2024-01-21T04:01:58.951Z,-4.4
2024-01-21T04:14:58.896Z,-4.7
2024-01-21T04:27:58.938Z,-4.8
2024-01-21T04:40:58.951Z,-4.8
2024-01-21T04:53:58.890Z,-4.5
2024-01-21T05:06:58.959Z,-4.4
2024-01-21T05:19:58.913Z,-4.6
2024-01-21T05:32:58.971Z,-4.4
2024-01-21T05:45:59.002Z,-4.6
2024-01-21T05:58:58.954Z,-4.4
2024-01-21T06:11:58.939Z,-4.3
2024-01-21T06:24:58.962Z,-4.4
2024-01-21T06:38:58.959Z,-4.7
2024-01-21T06:52:58.977Z,-4.6
2024-01-21T07:06:58.993Z,-4.7
2024-01-21T07:20:58.994Z,-4.4
2024-01-21T07:34:58.995Z,-3.6
2024-01-21T07:48:59.191Z,-3.2
2024-01-21T08:02:59.162Z,-1.2
2024-01-21T08:16:59.015Z,0.5
2024-01-21T08:30:59.073Z,1.6
2024-01-21T08:44:59.037Z,2.7
2024-01-21T08:58:59.043Z,3.4
2024-01-21T09:12:59.099Z,4.1
2024-01-21T09:26:59.022Z,5.4
2024-01-21T09:40:59.036Z,5.7
2024-01-21T09:54:59.102Z,6.9
2024-01-21T10:08:59.086Z,7.5
2024-01-21T10:22:59.066Z,7.3
2024-01-21T10:36:59.084Z,7.2
2024-01-21T10:50:59.122Z,7.0
2024-01-21T11:04:59.151Z,7.7
2024-01-21T11:18:59.162Z,7.5
2024-01-21T11:32:59.232Z,7.6
2024-01-21T11:47:59.095Z,7.7
2024-01-21T12:01:59.998Z,8.1
2024-01-21T12:15:59.145Z,8.1
2024-01-21T12:29:59.146Z,8.3
2024-01-21T12:43:59.141Z,8.5
2024-01-21T12:57:59.209Z,8.3
2024-01-21T13:11:59.175Z,8.1
2024-01-21T13:25:59.152Z,8.3
2024-01-21T13:39:59.198Z,8.4
2024-01-21T13:54:59.203Z,8.0
2024-01-21T14:09:59.999Z,8.0
2024-01-21T14:23:59.435Z,7.9
2024-01-21T14:37:59.177Z,7.5
2024-01-21T14:51:59.228Z,6.9
2024-01-21T15:05:59.432Z,5.9
2024-01-21T15:19:59.272Z,4.7
2024-01-21T15:33:59.252Z,3.5
2024-01-21T15:47:59.229Z,2.3
2024-01-21T16:02:00.092Z,1.0
2024-01-21T16:16:59.244Z,0.1
2024-01-21T16:30:59.296Z,-0.1
2024-01-21T16:44:59.246Z,0.2
2024-01-21T16:57:59.262Z,0.2
2024-01-21T17:10:59.234Z,-0.6
2024-01-21T17:23:59.314Z,-0.9
2024-01-21T17:36:59.284Z,-1.0
2024-01-21T17:49:59.271Z,-1.4
2024-01-21T18:02:59.345Z,-1.5
2024-01-21T18:15:59.285Z,-1.0
2024-01-21T18:29:08.538Z,-1.4
2024-01-21T18:41:59.396Z,-1.5
2024-01-21T18:54:59.334Z,-1.7
2024-01-21T19:07:59.789Z,-1.7
2024-01-21T19:23:00.512Z,-2.1
2024-01-21T19:35:59.506Z,-2.3
2024-01-21T19:48:59.643Z,-2.2
2024-01-21T20:02:00.465Z,-2.0
2024-01-21T20:14:59.339Z,-2.3
2024-01-21T20:27:59.461Z,-2.1
2024-01-21T20:40:59.343Z,-2.5
2024-01-21T20:53:59.761Z,-2.6
2024-01-21T21:06:59.334Z,-2.6
2024-01-21T21:19:59.338Z,-2.6
2024-01-21T21:32:59.491Z,-2.7
2024-01-21T21:45:59.352Z,-2.8
2024-01-21T21:58:59.378Z,-3.2
2024-01-21T22:11:59.393Z,-2.9
2024-01-21T22:24:59.386Z,-2.8
2024-01-21T22:37:59.339Z,-2.7
2024-01-21T22:50:59.360Z,-2.8
2024-01-21T23:03:59.426Z,-3.1
2024-01-21T23:16:59.389Z,-3.2
2024-01-21T23:29:59.419Z,-3.1
2024-01-21T23:42:59.370Z,-3.0
2024-01-21T23:55:59.385Z,-2.9
